createdAt,value
2023-04-17T00:02:03.105Z,20.00
2023-04-17T00:04:26.756Z,19.40
2023-04-17T00:07:02.932Z,19.70
2023-04-17T00:09:34.194Z,20.50
2023-04-17T00:12:16.602Z,20.90
2023-04-17T00:14:48.015Z,19.70
2023-04-17T00:17:11.624Z,20.90
2023-04-17T00:19:47.062Z,20.80
2023-04-17T00:22:23.804Z,20.00
2023-04-17T00:24:47.524Z,20.90
2023-04-17T00:27:11.111Z,20.10
2023-04-17T00:29:44.995Z,19.80
2023-04-17T00:32:28.659Z,20.20
2023-04-17T00:35:02.372Z,20.30
2023-04-17T00:37:31.229Z,20.70
2023-04-17T00:39:59.435Z,19.50
2023-04-17T00:42:44.550Z,19.10
2023-04-17T00:45:17.129Z,20.00
2023-04-17T00:47:43.822Z,19.00
2023-04-17T00:50:11.053Z,19.80
2023-04-17T00:52:46.212Z,19.00
2023-04-17T00:55:32.120Z,19.70
2023-04-17T00:58:16.117Z,19.70
2023-04-17T01:00:42.075Z,19.30
2023-04-17T01:03:29.126Z,19.10
2023-04-17T01:06:13.088Z,19.20
2023-04-17T01:08:42.398Z,19.90
2023-04-17T01:11:06.328Z,18.20
2023-04-17T01:13:29.827Z,19.80
2023-04-17T01:16:14.838Z,18.80
2023-04-17T01:18:58.640Z,19.60
2023-04-17T01:21:25.224Z,19.90
2023-04-17T01:23:52.313Z,20.70
2023-04-17T01:26:30.838Z,20.10
2023-04-17T01:28:59.341Z,20.70
2023-04-17T01:31:37.222Z,19.60
2023-04-17T01:34:14.509Z,19.80
2023-04-17T01:36:58.559Z,19.10
2023-04-17T01:39:37.272Z,19.50
2023-04-17T01:42:05.698Z,19.90
2023-04-17T01:44:49.713Z,19.90
2023-04-17T01:47:13.891Z,20.30
2023-04-17T01:49:41.241Z,20.10
2023-04-17T01:52:08.117Z,19.40
2023-04-17T01:54:32.284Z,19.20
2023-04-17T01:56:56.423Z,20.20
2023-04-17T01:59:19.808Z,19.20
2023-04-17T02:01:43.320Z,19.30
2023-04-17T02:04:07.183Z,20.40
2023-04-17T02:06:51.329Z,19.90
2023-04-17T02:09:18.238Z,20.90
2023-04-17T02:11:48.966Z,19.10
2023-04-17T02:14:23.397Z,19.80
2023-04-17T02:16:49.547Z,19.70
2023-04-17T02:19:16.093Z,19.60
2023-04-17T02:21:59.836Z,20.50
2023-04-17T02:24:23.340Z,20.00
2023-04-17T02:26:49.565Z,20.50
2023-04-17T02:29:33.738Z,20.80
2023-04-17T02:32:05.235Z,20.10
2023-04-17T02:34:38.600Z,20.20
2023-04-17T02:37:07.525Z,19.40
2023-04-17T02:39:40.949Z,19.90
2023-04-17T02:42:07.206Z,19.90
2023-04-17T02:44:35.489Z,19.30
2023-04-17T02:47:02.087Z,20.20
2023-04-17T02:49:33.092Z,19.30
2023-04-17T02:52:04.956Z,20.30
2023-04-17T02:54:39.607Z,22.40
2023-04-17T02:57:03.725Z,20.50
2023-04-17T02:59:27.352Z,19.60
2023-04-17T03:01:51.035Z,20.70
2023-04-17T03:04:17.133Z,20.50
2023-04-17T03:06:41.417Z,21.00
2023-04-17T03:11:37.232Z,20.10
2023-04-17T03:14:01.024Z,20.70
2023-04-17T03:16:44.837Z,20.90
2023-04-17T03:19:28.660Z,19.90
2023-04-17T03:21:54.584Z,21.00
2023-04-17T03:24:33.275Z,20.00
2023-04-17T03:27:09.321Z,21.30
2023-04-17T03:29:37.688Z,21.30
2023-04-17T03:32:21.340Z,20.50
2023-04-17T03:35:06.689Z,20.00
2023-04-17T03:37:31.403Z,20.10
2023-04-17T03:39:58.797Z,20.90
2023-04-17T03:42:28.189Z,19.60
2023-04-17T03:44:54.789Z,20.10
2023-04-17T03:47:25.827Z,20.30
2023-04-17T03:49:52.938Z,20.10
2023-04-17T03:52:19.687Z,20.30
2023-04-17T03:54:59.255Z,20.20
2023-04-17T03:57:43.267Z,19.60
2023-04-17T04:00:18.530Z,20.30
2023-04-17T04:02:42.007Z,20.50
2023-04-17T04:05:09.663Z,20.30
2023-04-17T04:07:41.080Z,19.50
2023-04-17T04:10:10.894Z,20.20
2023-04-17T04:12:55.392Z,19.60
2023-04-17T04:15:21.904Z,18.90
2023-04-17T04:17:49.377Z,19.10
2023-04-17T04:20:16.448Z,19.00
2023-04-17T04:22:44.253Z,19.40
2023-04-17T04:25:28.459Z,18.50
2023-04-17T04:28:06.114Z,19.20
2023-04-17T04:30:50.653Z,19.40
2023-04-17T04:33:31.116Z,18.40
2023-04-17T04:35:56.316Z,18.70
2023-04-17T04:38:30.381Z,19.70
2023-04-17T04:41:05.635Z,17.70
2023-04-17T04:43:33.457Z,19.70
2023-04-17T04:46:00.417Z,18.70
2023-04-17T04:48:28.561Z,17.80
2023-04-17T04:50:52.087Z,18.80
2023-04-17T04:53:18.605Z,18.40
2023-04-17T04:55:48.407Z,19.40
2023-04-17T04:58:25.363Z,19.20
2023-04-17T05:00:49.573Z,18.80
2023-04-17T05:03:40.072Z,18.60
2023-04-17T05:06:10.614Z,18.90
2023-04-17T05:08:37.325Z,18.30
2023-04-17T05:11:07.313Z,19.00
2023-04-17T05:13:33.900Z,19.70
2023-04-17T05:16:01.649Z,18.70
2023-04-17T05:18:25.877Z,19.20
2023-04-17T05:20:49.355Z,19.60
2023-04-17T05:23:13.291Z,18.50
2023-04-17T05:25:37.735Z,19.00
2023-04-17T05:28:04.879Z,18.20
2023-04-17T05:30:28.861Z,18.40
2023-04-17T05:33:04.619Z,17.90
2023-04-17T05:35:39.089Z,18.50
2023-04-17T05:38:10.279Z,19.20
2023-04-17T05:40:36.821Z,18.60
2023-04-17T05:43:07.854Z,18.80
2023-04-17T05:45:41.358Z,17.60
2023-04-17T05:48:06.399Z,18.00
2023-04-17T05:50:30.349Z,18.50
2023-04-17T05:52:54.447Z,17.40
2023-04-17T05:55:19.739Z,17.60
2023-04-17T05:57:50.153Z,17.20
2023-04-17T06:00:24.162Z,16.60
2023-04-17T06:02:50.513Z,16.20
2023-04-17T06:05:21.347Z,16.30
2023-04-17T06:07:45.638Z,16.10
2023-04-17T06:10:11.629Z,16.40
2023-04-17T06:12:55.576Z,15.80
2023-04-17T06:15:23.346Z,16.60
2023-04-17T06:18:01.296Z,16.30
2023-04-17T06:20:28.417Z,16.50
2023-04-17T06:23:12.679Z,16.80
2023-04-17T06:25:39.288Z,15.70
2023-04-17T06:28:23.634Z,15.60
2023-04-17T06:30:49.065Z,16.30
2023-04-17T06:33:12.605Z,15.40
2023-04-17T06:35:37.180Z,16.70
2023-04-17T06:38:09.488Z,14.90
2023-04-17T06:40:33.756Z,15.90
2023-04-17T06:43:02.621Z,15.70
2023-04-17T06:45:26.208Z,15.40
2023-04-17T06:47:49.912Z,16.40
2023-04-17T06:50:14.080Z,16.20
2023-04-17T06:52:37.632Z,15.20
2023-04-17T06:55:01.740Z,14.50
2023-04-17T06:59:53.752Z,15.40
2023-04-17T07:02:17.461Z,14.40
2023-04-17T07:04:44.254Z,14.70
2023-04-17T07:07:07.928Z,14.00
2023-04-17T07:09:31.292Z,13.80
2023-04-17T07:11:55.292Z,14.80
2023-04-17T07:14:18.786Z,15.60
2023-04-17T07:16:42.515Z,14.40
2023-04-17T07:19:06.224Z,14.20
2023-04-17T07:21:29.988Z,15.50
2023-04-17T07:23:53.446Z,15.90
2023-04-17T07:26:17.184Z,16.20
2023-04-17T07:28:40.842Z,16.20
2023-04-17T07:31:11.835Z,16.50
2023-04-17T07:33:37.418Z,17.50
2023-04-17T07:36:03.242Z,18.10
2023-04-17T07:38:26.659Z,18.30
2023-04-17T07:40:50.670Z,16.70
2023-04-17T07:43:14.710Z,17.40
2023-04-17T07:45:40.476Z,17.10
2023-04-17T07:48:05.785Z,17.70
2023-04-17T07:50:29.731Z,16.70
2023-04-17T07:52:53.258Z,17.10
2023-04-17T07:55:17.075Z,16.50
2023-04-17T07:57:42.093Z,15.80
2023-04-17T08:00:09.871Z,15.50
2023-04-17T08:02:43.082Z,15.00
2023-04-17T08:05:10.593Z,14.30
2023-04-17T08:07:34.130Z,13.30
2023-04-17T08:09:58.126Z,13.80
2023-04-17T08:12:21.468Z,13.00
2023-04-17T08:14:44.957Z,13.90
2023-04-17T08:17:08.411Z,12.70
2023-04-17T08:19:31.893Z,13.10
2023-04-17T08:22:03.292Z,12.90
2023-04-17T08:24:26.872Z,12.70
2023-04-17T08:26:50.811Z,14.00
2023-04-17T08:29:14.633Z,12.80
2023-04-17T08:31:39.727Z,11.60
2023-04-17T08:34:13.735Z,11.00
2023-04-17T08:36:39.436Z,10.70
2023-04-17T08:39:04.165Z,12.40
2023-04-17T08:41:36.756Z,13.00
2023-04-17T08:44:03.105Z,11.40
2023-04-17T08:46:27.127Z,11.90
2023-04-17T08:48:52.223Z,11.30
2023-04-17T08:51:16.845Z,11.70
2023-04-17T08:53:40.524Z,10.90
2023-04-17T08:56:08.918Z,11.70
2023-04-17T08:58:34.204Z,11.30
2023-04-17T09:01:09.126Z,12.10
2023-04-17T09:03:41.082Z,12.90
2023-04-17T09:06:05.091Z,12.50
2023-04-17T09:08:28.934Z,12.50
2023-04-17T09:10:59.790Z,11.70
2023-04-17T09:13:24.796Z,12.00
2023-04-17T09:16:07.416Z,11.70
2023-04-17T09:18:32.318Z,12.00
2023-04-17T09:20:56.926Z,11.20
2023-04-17T09:23:22.186Z,11.20
2023-04-17T09:25:46.089Z,12.20
2023-04-17T09:28:15.575Z,11.30
2023-04-17T09:30:40.420Z,11.10
2023-04-17T09:33:05.065Z,11.50
2023-04-17T09:35:28.842Z,11.40
2023-04-17T09:37:53.601Z,11.10
2023-04-17T09:40:18.500Z,11.80
2023-04-17T09:42:56.453Z,11.40
2023-04-17T09:45:21.774Z,12.00
2023-04-17T09:47:47.892Z,12.30
2023-04-17T09:52:36.259Z,11.60
2023-04-17T09:55:06.239Z,11.10
2023-04-17T09:57:29.786Z,11.90
2023-04-17T09:59:58.995Z,12.10
2023-04-17T10:02:26.121Z,11.00
2023-04-17T10:04:49.843Z,11.20
2023-04-17T10:07:15.627Z,11.10
2023-04-17T10:09:41.207Z,11.40
2023-04-17T10:12:06.049Z,10.10
2023-04-17T10:14:32.880Z,10.70
2023-04-17T10:16:56.819Z,10.90
2023-04-17T10:19:31.167Z,11.20
2023-04-17T10:22:32.357Z,10.60
2023-04-17T10:25:17.907Z,11.30
2023-04-17T10:27:47.010Z,11.40
2023-04-17T10:30:12.547Z,11.80
2023-04-17T10:32:36.536Z,11.40
2023-04-17T10:35:02.944Z,11.80
2023-04-17T10:37:58.675Z,11.00
2023-04-17T10:40:23.989Z,11.10
2023-04-17T10:43:03.195Z,12.00
2023-04-17T10:45:46.784Z,10.80
2023-04-17T10:48:20.942Z,10.40
2023-04-17T10:50:44.732Z,10.90
2023-04-17T10:53:28.348Z,10.70
2023-04-17T10:55:51.785Z,10.60
2023-04-17T10:58:15.386Z,10.20
2023-04-17T11:00:49.901Z,9.80
2023-04-17T11:03:16.456Z,10.20
2023-04-17T11:05:45.223Z,10.20
2023-04-17T11:08:11.043Z,10.30
2023-04-17T11:10:36.884Z,10.30
2023-04-17T11:13:01.594Z,10.60
2023-04-17T11:15:29.768Z,10.20
2023-04-17T11:17:54.573Z,10.10
2023-04-17T11:20:21.858Z,10.30
2023-04-17T11:22:45.752Z,11.80
2023-04-17T11:25:20.783Z,10.80
2023-04-17T11:27:44.442Z,9.90
2023-04-17T11:30:10.213Z,9.60
2023-04-17T11:32:37.022Z,9.40
2023-04-17T11:35:01.028Z,10.40
2023-04-17T11:37:25.590Z,10.10
2023-04-17T11:39:49.257Z,9.30
2023-04-17T11:42:12.630Z,9.50
2023-04-17T11:44:36.536Z,9.60
2023-04-17T11:47:01.537Z,9.50
2023-04-17T11:49:25.871Z,8.70
2023-04-17T11:51:49.708Z,8.30
2023-04-17T11:54:24.522Z,8.60
2023-04-17T11:57:00.761Z,8.00
2023-04-17T11:59:31.514Z,7.90
2023-04-17T12:01:54.894Z,8.30
2023-04-17T12:04:21.118Z,8.40
2023-04-17T12:06:45.346Z,7.60
2023-04-17T12:09:20.176Z,7.80
2023-04-17T12:11:43.684Z,7.60
2023-04-17T12:14:11.681Z,7.40
2023-04-17T12:16:35.551Z,7.70
2023-04-17T12:19:01.557Z,7.70
2023-04-17T12:21:27.636Z,8.60
2023-04-17T12:23:51.237Z,7.90
2023-04-17T12:26:15.211Z,8.70
2023-04-17T12:28:58.920Z,8.50
2023-04-17T12:31:22.589Z,8.40
2023-04-17T12:33:46.759Z,8.90
2023-04-17T12:36:10.581Z,8.10
2023-04-17T12:38:34.392Z,8.70
2023-04-17T12:40:57.829Z,8.40
2023-04-17T12:43:21.748Z,8.50
2023-04-17T12:45:45.793Z,8.00
2023-04-17T12:48:09.492Z,8.20
2023-04-17T12:50:33.132Z,7.50
2023-04-17T12:52:56.597Z,7.50
2023-04-17T12:55:20.830Z,7.50
2023-04-17T12:57:47.534Z,7.70
2023-04-17T13:00:12.775Z,7.90
2023-04-17T13:02:36.703Z,8.10
2023-04-17T13:05:00.860Z,8.10
2023-04-17T13:07:24.671Z,8.40
2023-04-17T13:09:48.410Z,11.40
2023-04-17T13:12:12.537Z,8.10
2023-04-17T13:14:43.457Z,8.10
2023-04-17T13:17:07.215Z,8.60
2023-04-17T13:19:32.416Z,8.30
2023-04-17T13:21:56.136Z,8.50
2023-04-17T13:24:19.872Z,8.40
2023-04-17T13:27:04.622Z,8.50
2023-04-17T13:29:31.324Z,7.40
2023-04-17T13:31:54.845Z,8.40
2023-04-17T13:34:19.622Z,7.80
2023-04-17T13:36:44.296Z,6.90
2023-04-17T13:39:08.877Z,7.80
2023-04-17T13:41:32.758Z,7.90
2023-04-17T13:43:56.665Z,7.50
2023-04-17T13:46:20.557Z,7.10
2023-04-17T13:48:46.207Z,7.20
2023-04-17T13:51:09.827Z,7.10
2023-04-17T13:53:33.596Z,5.90
2023-04-17T13:55:57.506Z,5.40
2023-04-17T13:58:20.948Z,6.00
2023-04-17T14:00:44.637Z,6.40
2023-04-17T14:03:08.193Z,6.00
2023-04-17T14:05:32.303Z,5.80
2023-04-17T14:08:03.936Z,6.10
2023-04-17T14:10:27.607Z,5.70
2023-04-17T14:12:54.434Z,6.00
2023-04-17T14:15:18.151Z,5.70
2023-04-17T14:17:42.540Z,5.50
2023-04-17T14:20:11.472Z,5.60
2023-04-17T14:22:44.343Z,5.70
2023-04-17T14:25:09.207Z,5.50
2023-04-17T14:27:35.073Z,5.50
2023-04-17T14:30:05.689Z,5.70
2023-04-17T14:32:31.904Z,5.80
2023-04-17T14:34:55.623Z,5.80
2023-04-17T14:37:19.571Z,5.70
2023-04-17T14:39:46.313Z,5.30
2023-04-17T14:42:10.195Z,5.80
2023-04-17T14:44:33.658Z,5.80
2023-04-17T14:46:57.333Z,7.40
2023-04-17T14:49:20.914Z,6.20
2023-04-17T14:51:44.423Z,6.40
2023-04-17T14:54:08.623Z,6.10
2023-04-17T14:56:32.249Z,6.00
2023-04-17T14:58:55.741Z,6.50
2023-04-17T15:01:19.200Z,6.70
2023-04-17T15:03:45.522Z,6.50
2023-04-17T15:06:11.743Z,6.10
2023-04-17T15:08:35.160Z,6.80
2023-04-17T15:10:58.842Z,6.70
2023-04-17T15:13:22.379Z,6.80
2023-04-17T15:15:45.809Z,6.90
2023-04-17T15:18:09.687Z,7.00
2023-04-17T15:20:35.170Z,6.90
2023-04-17T15:22:59.751Z,6.70
2023-04-17T15:25:24.204Z,6.70
2023-04-17T15:27:49.948Z,6.60
2023-04-17T15:30:15.261Z,7.20
2023-04-17T15:32:38.693Z,6.90
2023-04-17T15:35:02.296Z,7.00
2023-04-17T15:37:25.643Z,7.10
2023-04-17T15:39:49.046Z,8.00
2023-04-17T15:42:12.455Z,7.40
2023-04-17T15:44:36.918Z,7.30
2023-04-17T15:47:00.470Z,7.90
2023-04-17T15:49:24.600Z,6.80
2023-04-17T15:51:48.125Z,6.30
2023-04-17T15:54:11.555Z,6.60
2023-04-17T15:56:35.156Z,7.30
2023-04-17T15:58:58.482Z,6.80
2023-04-17T16:01:21.904Z,6.80
2023-04-17T16:03:45.700Z,7.20
2023-04-17T16:06:10.540Z,6.80
2023-04-17T16:08:34.170Z,7.00
2023-04-17T16:10:59.133Z,6.40
2023-04-17T16:13:22.537Z,7.00
2023-04-17T16:15:46.053Z,7.00
2023-04-17T16:18:11.162Z,6.40
2023-04-17T16:20:35.318Z,6.40
2023-04-17T16:22:58.816Z,7.00
2023-04-17T16:25:22.359Z,6.90
2023-04-17T16:27:45.871Z,6.70
2023-04-17T16:30:10.761Z,8.00
2023-04-17T16:32:34.193Z,6.90
2023-04-17T16:34:57.683Z,7.40
2023-04-17T16:37:21.039Z,6.80
2023-04-17T16:39:44.558Z,7.50
2023-04-17T16:42:08.375Z,7.00
2023-04-17T16:44:31.786Z,8.00
2023-04-17T16:49:22.460Z,8.30
2023-04-17T16:51:45.893Z,6.90
2023-04-17T16:54:09.352Z,7.30
2023-04-17T16:56:35.899Z,7.40
2023-04-17T16:58:59.409Z,7.40
2023-04-17T17:01:23.180Z,7.80
2023-04-17T17:03:46.692Z,7.60
2023-04-17T17:06:10.150Z,7.00
2023-04-17T17:08:33.744Z,6.70
2023-04-17T17:10:59.661Z,7.20
2023-04-17T17:13:23.050Z,6.50
2023-04-17T17:15:47.080Z,6.30
2023-04-17T17:18:10.548Z,7.10
2023-04-17T17:20:34.022Z,6.70
2023-04-17T17:22:57.432Z,8.00
2023-04-17T17:25:20.829Z,6.10
2023-04-17T17:27:44.259Z,6.40
2023-04-17T17:30:09.836Z,6.30
2023-04-17T17:32:33.407Z,5.90
2023-04-17T17:34:57.634Z,6.60
2023-04-17T17:37:21.337Z,7.00
2023-04-17T17:39:44.860Z,6.10
2023-04-17T17:42:08.951Z,6.60
2023-04-17T17:44:32.437Z,6.80
2023-04-17T17:46:55.827Z,6.70
2023-04-17T17:49:19.165Z,6.70
2023-04-17T17:51:43.769Z,6.90
2023-04-17T17:54:07.621Z,6.80
2023-04-17T17:56:31.128Z,6.50
2023-04-17T17:58:54.769Z,6.80
2023-04-17T18:01:18.193Z,7.40
2023-04-17T18:03:41.756Z,7.10
2023-04-17T18:06:05.567Z,6.70
2023-04-17T18:08:29.493Z,6.60
2023-04-17T18:10:53.007Z,7.80
2023-04-17T18:13:16.700Z,11.60
2023-04-17T18:15:40.122Z,11.00
2023-04-17T18:18:03.776Z,14.30
2023-04-17T18:20:27.221Z,15.00
2023-04-17T18:22:51.349Z,9.70
2023-04-17T18:25:14.751Z,6.60
2023-04-17T18:27:38.184Z,6.70
2023-04-17T18:30:01.832Z,7.00
2023-04-17T18:32:25.566Z,6.80
2023-04-17T18:34:50.217Z,7.20
2023-04-17T18:37:14.664Z,8.60
2023-04-17T18:39:59.340Z,7.50
2023-04-17T18:42:22.726Z,7.30
2023-04-17T18:44:46.281Z,7.60
2023-04-17T18:47:09.700Z,7.90
2023-04-17T18:49:35.498Z,8.30
2023-04-17T18:51:59.069Z,7.70
2023-04-17T18:54:23.613Z,11.00
2023-04-17T18:56:47.047Z,9.30
2023-04-17T18:59:11.218Z,7.30
2023-04-17T19:01:37.423Z,7.40
2023-04-17T19:04:01.988Z,8.00
2023-04-17T19:06:26.166Z,7.70
2023-04-17T19:08:49.702Z,7.40
2023-04-17T19:11:13.107Z,8.50
2023-04-17T19:13:44.386Z,7.70
2023-04-17T19:16:07.806Z,7.70
2023-04-17T19:18:31.270Z,8.40
2023-04-17T19:20:54.986Z,9.10
2023-04-17T19:23:21.050Z,9.00
2023-04-17T19:25:44.449Z,8.00
2023-04-17T19:28:07.886Z,8.20
2023-04-17T19:30:31.479Z,8.30
2023-04-17T19:32:55.052Z,8.20
2023-04-17T19:35:19.003Z,8.40
2023-04-17T19:37:45.824Z,8.70
2023-04-17T19:40:21.231Z,8.60
2023-04-17T19:42:47.499Z,9.50
2023-04-17T19:45:12.324Z,8.90
2023-04-17T19:47:36.533Z,9.60
2023-04-17T19:50:00.019Z,9.50
2023-04-17T19:52:24.022Z,9.90
2023-04-17T19:54:50.333Z,9.40
2023-04-17T19:57:22.976Z,10.10
2023-04-17T19:59:46.374Z,10.50
2023-04-17T20:02:11.273Z,9.80
2023-04-17T20:04:34.884Z,10.30
2023-04-17T20:06:58.278Z,10.60
2023-04-17T20:09:21.857Z,10.70
2023-04-17T20:11:45.649Z,11.00
2023-04-17T20:14:09.116Z,10.10
2023-04-17T20:16:32.533Z,10.70
2023-04-17T20:18:56.365Z,11.50
2023-04-17T20:21:20.011Z,11.00
2023-04-17T20:23:43.574Z,10.60
2023-04-17T20:26:10.562Z,11.00
2023-04-17T20:28:33.933Z,10.20
2023-04-17T20:30:57.647Z,10.90
2023-04-17T20:33:21.244Z,11.40
2023-04-17T20:35:45.015Z,12.30
2023-04-17T20:38:08.666Z,11.70
2023-04-17T20:40:35.433Z,11.20
2023-04-17T20:42:58.877Z,12.50
2023-04-17T20:45:22.676Z,11.90
2023-04-17T20:47:56.581Z,11.20
2023-04-17T20:50:21.041Z,11.70
2023-04-17T20:52:44.448Z,12.30
2023-04-17T20:55:09.022Z,12.20
2023-04-17T20:57:32.533Z,13.10
2023-04-17T20:59:56.154Z,12.40
2023-04-17T21:02:21.115Z,12.10
2023-04-17T21:04:44.922Z,12.00
2023-04-17T21:07:11.266Z,12.50
2023-04-17T21:09:35.296Z,13.00
2023-04-17T21:12:19.190Z,13.00
2023-04-17T21:14:51.399Z,13.90
2023-04-17T21:17:14.883Z,12.40
2023-04-17T21:19:41.701Z,12.90
2023-04-17T21:22:05.154Z,12.90
2023-04-17T21:24:31.093Z,12.40
2023-04-17T21:27:04.502Z,12.50
2023-04-17T21:29:29.203Z,13.50
2023-04-17T21:31:52.604Z,12.60
2023-04-17T21:34:16.208Z,13.10
2023-04-17T21:36:39.861Z,13.90
2023-04-17T21:39:06.694Z,13.20
2023-04-17T21:41:31.193Z,12.50
2023-04-17T21:43:54.608Z,13.40
2023-04-17T21:46:25.692Z,14.20
2023-04-17T21:48:49.267Z,14.00
2023-04-17T21:51:13.475Z,14.10
2023-04-17T21:53:49.762Z,12.70
2023-04-17T21:56:13.338Z,13.90
2023-04-17T21:58:37.085Z,14.00
2023-04-17T22:01:00.691Z,18.00
2023-04-17T22:03:24.327Z,16.30
2023-04-17T22:05:49.774Z,14.60
2023-04-17T22:08:16.890Z,14.30
2023-04-17T22:10:43.858Z,14.60
2023-04-17T22:13:07.465Z,14.50
2023-04-17T22:15:38.615Z,15.30
2023-04-17T22:18:02.341Z,14.80
2023-04-17T22:21:20.188Z,14.80
2023-04-17T22:24:56.520Z,15.30
2023-04-17T22:28:32.722Z,15.30
2023-04-17T22:32:09.530Z,16.40
2023-04-17T22:35:46.433Z,15.40
2023-04-17T22:39:23.090Z,15.80
2023-04-17T22:42:59.154Z,16.10
2023-04-17T22:46:35.527Z,16.70
2023-04-17T22:50:12.178Z,16.90
2023-04-17T22:53:48.618Z,16.20
2023-04-17T22:57:24.953Z,16.60
2023-04-17T23:01:01.360Z,16.30
2023-04-17T23:04:37.858Z,18.10
2023-04-17T23:08:14.438Z,17.00
2023-04-17T23:11:00.568Z,17.30
2023-04-17T23:13:25.025Z,17.30
2023-04-17T23:15:48.458Z,17.30
2023-04-17T23:18:11.903Z,17.60
2023-04-17T23:20:35.496Z,17.70
2023-04-17T23:22:58.912Z,18.80
2023-04-17T23:25:22.582Z,18.50
2023-04-17T23:27:46.100Z,19.40
2023-04-17T23:30:11.111Z,18.90
2023-04-17T23:32:34.714Z,20.20
2023-04-17T23:35:00.562Z,19.20
2023-04-17T23:37:24.228Z,19.80
2023-04-17T23:39:48.141Z,18.50
2023-04-17T23:42:11.561Z,18.70
2023-04-17T23:44:35.155Z,19.40
2023-04-17T23:46:59.294Z,18.50
2023-04-17T23:49:22.720Z,18.90
2023-04-17T23:51:46.173Z,18.20
2023-04-17T23:54:09.835Z,17.30
2023-04-17T23:56:33.240Z,18.50
2023-04-17T23:58:56.739Z,19.40
